sensor_id;sensor_type;location;lat;lon;timestamp;P1;durP1;ratioP1;P2;durP2;ratioP2
46491;SDS011;32206;51.446;6.792;2023-05-02T00:07:40;29.40;;;19.60;;
46491;SDS011;32206;51.446;6.792;2023-05-02T00:13:16;29.88;;;20.92;;
46491;SDS011;32206;51.446;6.792;2023-05-02T00:19:00;31.17;;;22.85;;
46491;SDS011;32206;51.446;6.792;2023-05-02T00:21:26;36.47;;;23.13;;
46491;SDS011;32206;51.446;6.792;2023-05-02T00:23:53;49.35;;;26.88;;
46491;SDS011;32206;51.446;6.792;2023-05-02T00:26:21;39.33;;;26.10;;
46491;SDS011;32206;51.446;6.792;2023-05-02T00:28:47;43.15;;;26.08;;
46491;SDS011;32206;51.446;6.792;2023-05-02T00:31:12;40.65;;;25.30;;
46491;SDS011;32206;51.446;6.792;2023-05-02T00:33:38;42.20;;;25.92;;
46491;SDS011;32206;51.446;6.792;2023-05-02T00:36:04;38.00;;;24.73;;
46491;SDS011;32206;51.446;6.792;2023-05-02T00:38:36;43.15;;;25.58;;
46491;SDS011;32206;51.446;6.792;2023-05-02T00:41:02;40.60;;;26.02;;
46491;SDS011;32206;51.446;6.792;2023-05-02T00:43:29;44.67;;;25.73;;
46491;SDS011;32206;51.446;6.792;2023-05-02T00:45:55;35.67;;;24.13;;
46491;SDS011;32206;51.446;6.792;2023-05-02T00:48:21;33.03;;;23.73;;
46491;SDS011;32206;51.446;6.792;2023-05-02T00:50:47;39.88;;;24.85;;
46491;SDS011;32206;51.446;6.792;2023-05-02T00:53:13;35.72;;;24.92;;
46491;SDS011;32206;51.446;6.792;2023-05-02T00:59:02;38.80;;;25.75;;
46491;SDS011;32206;51.446;6.792;2023-05-02T01:11:13;42.13;;;28.33;;
46491;SDS011;32206;51.446;6.792;2023-05-02T01:13:41;45.35;;;30.33;;
46491;SDS011;32206;51.446;6.792;2023-05-02T01:16:10;42.60;;;29.80;;
46491;SDS011;32206;51.446;6.792;2023-05-02T01:22:00;45.83;;;29.27;;
46491;SDS011;32206;51.446;6.792;2023-05-02T01:27:17;43.42;;;26.65;;
46491;SDS011;32206;51.446;6.792;2023-05-02T01:29:52;43.80;;;27.23;;
46491;SDS011;32206;51.446;6.792;2023-05-02T01:32:19;51.28;;;28.25;;
46491;SDS011;32206;51.446;6.792;2023-05-02T01:34:47;44.30;;;27.00;;
46491;SDS011;32206;51.446;6.792;2023-05-02T01:37:15;45.53;;;27.20;;
46491;SDS011;32206;51.446;6.792;2023-05-02T01:43:05;42.35;;;24.55;;
46491;SDS011;32206;51.446;6.792;2023-05-02T01:45:32;37.33;;;24.80;;
46491;SDS011;32206;51.446;6.792;2023-05-02T01:51:22;37.97;;;22.05;;
46491;SDS011;32206;51.446;6.792;2023-05-02T01:53:55;40.90;;;21.70;;
46491;SDS011;32206;51.446;6.792;2023-05-02T01:59:45;34.03;;;17.92;;
46491;SDS011;32206;51.446;6.792;2023-05-02T02:02:14;30.90;;;17.77;;
46491;SDS011;32206;51.446;6.792;2023-05-02T02:04:40;28.45;;;16.30;;
46491;SDS011;32206;51.446;6.792;2023-05-02T02:07:08;28.15;;;16.63;;
46491;SDS011;32206;51.446;6.792;2023-05-02T02:09:36;30.23;;;16.35;;
46491;SDS011;32206;51.446;6.792;2023-05-02T02:12:04;27.67;;;15.95;;
46491;SDS011;32206;51.446;6.792;2023-05-02T02:14:41;27.00;;;17.20;;
46491;SDS011;32206;51.446;6.792;2023-05-02T02:20:35;33.03;;;17.65;;
46491;SDS011;32206;51.446;6.792;2023-05-02T02:23:04;31.27;;;17.88;;
46491;SDS011;32206;51.446;6.792;2023-05-02T02:25:32;28.48;;;17.08;;
46491;SDS011;32206;51.446;6.792;2023-05-02T02:27:59;28.00;;;15.82;;
46491;SDS011;32206;51.446;6.792;2023-05-02T02:30:25;28.20;;;17.73;;
46491;SDS011;32206;51.446;6.792;2023-05-02T02:32:51;29.13;;;16.75;;
46491;SDS011;32206;51.446;6.792;2023-05-02T02:35:17;29.40;;;17.75;;
46491;SDS011;32206;51.446;6.792;2023-05-02T02:37:47;38.03;;;18.33;;
46491;SDS011;32206;51.446;6.792;2023-05-02T02:48:52;21.67;;;12.60;;
46491;SDS011;32206;51.446;6.792;2023-05-02T02:52:10;26.80;;;13.85;;
46491;SDS011;32206;51.446;6.792;2023-05-02T03:00:31;24.30;;;13.38;;
46491;SDS011;32206;51.446;6.792;2023-05-02T03:06:03;30.40;;;15.98;;
46491;SDS011;32206;51.446;6.792;2023-05-02T03:08:37;26.77;;;15.95;;
46491;SDS011;32206;51.446;6.792;2023-05-02T03:13:49;26.50;;;15.65;;
46491;SDS011;32206;51.446;6.792;2023-05-02T03:16:49;27.33;;;16.38;;
46491;SDS011;32206;51.446;6.792;2023-05-02T03:22:30;28.20;;;15.68;;
46491;SDS011;32206;51.446;6.792;2023-05-02T03:24:55;24.15;;;13.73;;
46491;SDS011;32206;51.446;6.792;2023-05-02T03:34:00;24.80;;;13.30;;
46491;SDS011;32206;51.446;6.792;2023-05-02T03:36:26;23.35;;;13.93;;
46491;SDS011;32206;51.446;6.792;2023-05-02T03:38:52;21.90;;;12.48;;
46491;SDS011;32206;51.446;6.792;2023-05-02T03:47:43;17.27;;;9.98;;
46491;SDS011;32206;51.446;6.792;2023-05-02T03:50:09;20.52;;;11.32;;
46491;SDS011;32206;51.446;6.792;2023-05-02T03:52:34;24.67;;;11.88;;
46491;SDS011;32206;51.446;6.792;2023-05-02T03:55:00;19.50;;;12.02;;
46491;SDS011;32206;51.446;6.792;2023-05-02T04:04:10;17.73;;;10.30;;
46491;SDS011;32206;51.446;6.792;2023-05-02T04:06:36;17.85;;;10.77;;
46491;SDS011;32206;51.446;6.792;2023-05-02T04:09:02;14.18;;;10.43;;
46491;SDS011;32206;51.446;6.792;2023-05-02T04:11:27;14.80;;;10.50;;
46491;SDS011;32206;51.446;6.792;2023-05-02T04:13:53;20.30;;;9.38;;
46491;SDS011;32206;51.446;6.792;2023-05-02T04:16:19;13.85;;;9.25;;
46491;SDS011;32206;51.446;6.792;2023-05-02T04:18:45;21.67;;;11.35;;
46491;SDS011;32206;51.446;6.792;2023-05-02T04:21:10;16.33;;;10.85;;
46491;SDS011;32206;51.446;6.792;2023-05-02T04:23:36;17.88;;;10.05;;
46491;SDS011;32206;51.446;6.792;2023-05-02T04:32:23;16.58;;;10.48;;
46491;SDS011;32206;51.446;6.792;2023-05-02T04:34:49;18.13;;;10.75;;
46491;SDS011;32206;51.446;6.792;2023-05-02T04:37:15;23.95;;;12.85;;
46491;SDS011;32206;51.446;6.792;2023-05-02T04:39:41;24.00;;;11.60;;
46491;SDS011;32206;51.446;6.792;2023-05-02T04:52:13;22.40;;;12.75;;
46491;SDS011;32206;51.446;6.792;2023-05-02T04:54:39;20.40;;;12.77;;
46491;SDS011;32206;51.446;6.792;2023-05-02T05:00:27;25.85;;;15.55;;
46491;SDS011;32206;51.446;6.792;2023-05-02T05:02:53;34.20;;;15.93;;
46491;SDS011;32206;51.446;6.792;2023-05-02T05:05:18;23.45;;;13.65;;
46491;SDS011;32206;51.446;6.792;2023-05-02T05:07:44;16.05;;;9.73;;
46491;SDS011;32206;51.446;6.792;2023-05-02T05:10:10;14.75;;;8.30;;
46491;SDS011;32206;51.446;6.792;2023-05-02T05:12:36;21.05;;;8.40;;
46491;SDS011;32206;51.446;6.792;2023-05-02T05:15:02;15.80;;;8.50;;
46491;SDS011;32206;51.446;6.792;2023-05-02T05:17:27;13.02;;;7.28;;
46491;SDS011;32206;51.446;6.792;2023-05-02T05:19:53;20.55;;;9.77;;
46491;SDS011;32206;51.446;6.792;2023-05-02T05:22:19;18.20;;;9.48;;
46491;SDS011;32206;51.446;6.792;2023-05-02T05:24:53;20.58;;;8.75;;
46491;SDS011;32206;51.446;6.792;2023-05-02T05:33:55;7.95;;;5.15;;
46491;SDS011;32206;51.446;6.792;2023-05-02T05:36:21;8.95;;;4.40;;
46491;SDS011;32206;51.446;6.792;2023-05-02T05:38:46;6.38;;;4.13;;
46491;SDS011;32206;51.446;6.792;2023-05-02T05:41:12;10.45;;;4.13;;
46491;SDS011;32206;51.446;6.792;2023-05-02T05:47:00;7.50;;;4.38;;
46491;SDS011;32206;51.446;6.792;2023-05-02T05:49:25;8.90;;;3.17;;
46491;SDS011;32206;51.446;6.792;2023-05-02T05:51:52;7.97;;;3.78;;
46491;SDS011;32206;51.446;6.792;2023-05-02T05:54:18;20.73;;;3.97;;
46491;SDS011;32206;51.446;6.792;2023-05-02T05:56:44;7.05;;;3.28;;
46491;SDS011;32206;51.446;6.792;2023-05-02T05:59:09;8.98;;;5.22;;
46491;SDS011;32206;51.446;6.792;2023-05-02T06:01:35;11.63;;;3.30;;
46491;SDS011;32206;51.446;6.792;2023-05-02T06:04:02;10.68;;;3.22;;
46491;SDS011;32206;51.446;6.792;2023-05-02T06:09:19;5.78;;;2.58;;
46491;SDS011;32206;51.446;6.792;2023-05-02T06:11:45;12.52;;;3.67;;
46491;SDS011;32206;51.446;6.792;2023-05-02T06:14:11;7.65;;;2.75;;
46491;SDS011;32206;51.446;6.792;2023-05-02T06:16:36;8.52;;;2.88;;
46491;SDS011;32206;51.446;6.792;2023-05-02T06:19:02;7.57;;;2.85;;
46491;SDS011;32206;51.446;6.792;2023-05-02T06:21:27;9.43;;;2.80;;
46491;SDS011;32206;51.446;6.792;2023-05-02T06:26:37;6.47;;;2.70;;
46491;SDS011;32206;51.446;6.792;2023-05-02T06:32:28;4.20;;;2.15;;
46491;SDS011;32206;51.446;6.792;2023-05-02T06:34:57;6.43;;;2.55;;
46491;SDS011;32206;51.446;6.792;2023-05-02T06:40:45;9.07;;;2.45;;
46491;SDS011;32206;51.446;6.792;2023-05-02T06:43:11;8.38;;;2.63;;
46491;SDS011;32206;51.446;6.792;2023-05-02T06:45:37;4.20;;;2.13;;
46491;SDS011;32206;51.446;6.792;2023-05-02T06:48:03;5.03;;;2.10;;
46491;SDS011;32206;51.446;6.792;2023-05-02T06:50:29;6.65;;;2.15;;
46491;SDS011;32206;51.446;6.792;2023-05-02T06:52:55;6.78;;;2.60;;
46491;SDS011;32206;51.446;6.792;2023-05-02T06:55:21;6.50;;;2.00;;
46491;SDS011;32206;51.446;6.792;2023-05-02T06:57:50;6.97;;;2.20;;
46491;SDS011;32206;51.446;6.792;2023-05-02T07:00:16;8.85;;;2.22;;
46491;SDS011;32206;51.446;6.792;2023-05-02T07:02:46;12.73;;;2.10;;
46491;SDS011;32206;51.446;6.792;2023-05-02T07:05:13;3.63;;;1.80;;
46491;SDS011;32206;51.446;6.792;2023-05-02T07:07:42;3.80;;;1.77;;
46491;SDS011;32206;51.446;6.792;2023-05-02T07:10:09;5.80;;;1.77;;
46491;SDS011;32206;51.446;6.792;2023-05-02T07:12:35;5.80;;;1.60;;
46491;SDS011;32206;51.446;6.792;2023-05-02T07:15:01;7.90;;;2.10;;
46491;SDS011;32206;51.446;6.792;2023-05-02T07:17:27;8.45;;;2.08;;
46491;SDS011;32206;51.446;6.792;2023-05-02T07:19:52;7.88;;;1.63;;
46491;SDS011;32206;51.446;6.792;2023-05-02T07:22:20;10.23;;;1.98;;
46491;SDS011;32206;51.446;6.792;2023-05-02T07:24:45;8.63;;;1.83;;
46491;SDS011;32206;51.446;6.792;2023-05-02T07:27:11;9.55;;;2.05;;
46491;SDS011;32206;51.446;6.792;2023-05-02T07:29:37;8.75;;;1.80;;
46491;SDS011;32206;51.446;6.792;2023-05-02T07:32:03;11.27;;;1.65;;
46491;SDS011;32206;51.446;6.792;2023-05-02T07:34:30;6.05;;;1.60;;
46491;SDS011;32206;51.446;6.792;2023-05-02T07:36:56;7.43;;;1.63;;
46491;SDS011;32206;51.446;6.792;2023-05-02T07:39:23;8.85;;;2.25;;
46491;SDS011;32206;51.446;6.792;2023-05-02T07:41:52;2.65;;;1.85;;
46491;SDS011;32206;51.446;6.792;2023-05-02T07:47:40;10.98;;;2.42;;
46491;SDS011;32206;51.446;6.792;2023-05-02T07:50:06;4.35;;;1.50;;
46491;SDS011;32206;51.446;6.792;2023-05-02T07:52:33;4.75;;;1.60;;
46491;SDS011;32206;51.446;6.792;2023-05-02T07:54:58;7.53;;;2.00;;
46491;SDS011;32206;51.446;6.792;2023-05-02T07:57:24;9.57;;;1.75;;
46491;SDS011;32206;51.446;6.792;2023-05-02T08:03:16;5.97;;;2.00;;
46491;SDS011;32206;51.446;6.792;2023-05-02T08:05:42;6.60;;;1.65;;
46491;SDS011;32206;51.446;6.792;2023-05-02T08:20:39;6.63;;;1.10;;
46491;SDS011;32206;51.446;6.792;2023-05-02T08:23:04;6.78;;;2.50;;
46491;SDS011;32206;51.446;6.792;2023-05-02T08:25:30;2.45;;;1.00;;
46491;SDS011;32206;51.446;6.792;2023-05-02T08:27:56;3.65;;;1.00;;
46491;SDS011;32206;51.446;6.792;2023-05-02T08:30:21;2.83;;;1.02;;
46491;SDS011;32206;51.446;6.792;2023-05-02T08:32:47;5.13;;;1.13;;
46491;SDS011;32206;51.446;6.792;2023-05-02T08:35:12;4.43;;;1.20;;
46491;SDS011;32206;51.446;6.792;2023-05-02T08:37:38;2.63;;;1.23;;
46491;SDS011;32206;51.446;6.792;2023-05-02T08:40:04;5.57;;;1.38;;
46491;SDS011;32206;51.446;6.792;2023-05-02T08:42:31;6.00;;;1.85;;
46491;SDS011;32206;51.446;6.792;2023-05-02T08:48:35;4.05;;;1.40;;
46491;SDS011;32206;51.446;6.792;2023-05-02T08:51:12;4.57;;;1.85;;
46491;SDS011;32206;51.446;6.792;2023-05-02T08:53:41;3.38;;;2.60;;
46491;SDS011;32206;51.446;6.792;2023-05-02T08:56:08;7.55;;;1.90;;
46491;SDS011;32206;51.446;6.792;2023-05-02T08:58:35;10.95;;;2.88;;
46491;SDS011;32206;51.446;6.792;2023-05-02T09:04:25;5.35;;;1.40;;
46491;SDS011;32206;51.446;6.792;2023-05-02T09:10:34;9.93;;;2.05;;
46491;SDS011;32206;51.446;6.792;2023-05-02T09:19:22;15.73;;;1.98;;
46491;SDS011;32206;51.446;6.792;2023-05-02T09:21:52;6.78;;;2.33;;
46491;SDS011;32206;51.446;6.792;2023-05-02T09:27:51;3.30;;;1.08;;
46491;SDS011;32206;51.446;6.792;2023-05-02T09:33:40;5.32;;;1.52;;
46491;SDS011;32206;51.446;6.792;2023-05-02T09:36:06;7.10;;;2.22;;
46491;SDS011;32206;51.446;6.792;2023-05-02T09:41:56;7.75;;;2.30;;
46491;SDS011;32206;51.446;6.792;2023-05-02T09:44:23;4.90;;;1.52;;
46491;SDS011;32206;51.446;6.792;2023-05-02T09:46:50;5.30;;;1.50;;
46491;SDS011;32206;51.446;6.792;2023-05-02T09:52:25;5.03;;;2.08;;
46491;SDS011;32206;51.446;6.792;2023-05-02T09:54:50;4.68;;;1.75;;
46491;SDS011;32206;51.446;6.792;2023-05-02T09:57:17;5.88;;;2.40;;
46491;SDS011;32206;51.446;6.792;2023-05-02T10:03:06;6.38;;;1.85;;
46491;SDS011;32206;51.446;6.792;2023-05-02T10:05:33;8.82;;;1.98;;
46491;SDS011;32206;51.446;6.792;2023-05-02T10:08:02;5.30;;;1.80;;
46491;SDS011;32206;51.446;6.792;2023-05-02T10:10:32;9.43;;;2.63;;
46491;SDS011;32206;51.446;6.792;2023-05-02T10:13:02;7.13;;;2.47;;
46491;SDS011;32206;51.446;6.792;2023-05-02T10:18:51;7.57;;;2.10;;
46491;SDS011;32206;51.446;6.792;2023-05-02T10:21:24;6.13;;;1.75;;
46491;SDS011;32206;51.446;6.792;2023-05-02T10:23:53;6.40;;;1.98;;
46491;SDS011;32206;51.446;6.792;2023-05-02T10:26:19;4.07;;;1.77;;
46491;SDS011;32206;51.446;6.792;2023-05-02T10:28:47;8.55;;;1.92;;
46491;SDS011;32206;51.446;6.792;2023-05-02T10:31:13;6.57;;;1.50;;
46491;SDS011;32206;51.446;6.792;2023-05-02T10:33:41;4.93;;;1.58;;
46491;SDS011;32206;51.446;6.792;2023-05-02T10:36:08;6.90;;;1.90;;
46491;SDS011;32206;51.446;6.792;2023-05-02T10:38:37;5.60;;;1.85;;
46491;SDS011;32206;51.446;6.792;2023-05-02T10:41:13;4.75;;;1.73;;
46491;SDS011;32206;51.446;6.792;2023-05-02T10:43:45;9.80;;;2.97;;
46491;SDS011;32206;51.446;6.792;2023-05-02T10:52:34;8.10;;;1.33;;
46491;SDS011;32206;51.446;6.792;2023-05-02T11:10:36;7.35;;;1.70;;
46491;SDS011;32206;51.446;6.792;2023-05-02T11:13:02;5.28;;;2.50;;
46491;SDS011;32206;51.446;6.792;2023-05-02T11:34:23;4.90;;;1.90;;
46491;SDS011;32206;51.446;6.792;2023-05-02T11:36:49;7.35;;;2.20;;
46491;SDS011;32206;51.446;6.792;2023-05-02T11:39:18;4.53;;;2.38;;
46491;SDS011;32206;51.446;6.792;2023-05-02T11:41:45;5.20;;;1.92;;
46491;SDS011;32206;51.446;6.792;2023-05-02T11:44:14;5.65;;;1.52;;
46491;SDS011;32206;51.446;6.792;2023-05-02T11:46:40;12.52;;;2.45;;
46491;SDS011;32206;51.446;6.792;2023-05-02T11:49:07;10.30;;;2.85;;
46491;SDS011;32206;51.446;6.792;2023-05-02T11:51:33;6.40;;;2.10;;
46491;SDS011;32206;51.446;6.792;2023-05-02T11:53:59;8.13;;;2.20;;
46491;SDS011;32206;51.446;6.792;2023-05-02T11:56:25;7.75;;;1.63;;
46491;SDS011;32206;51.446;6.792;2023-05-02T11:59:00;5.70;;;1.67;;
46491;SDS011;32206;51.446;6.792;2023-05-02T12:01:27;6.38;;;2.40;;
46491;SDS011;32206;51.446;6.792;2023-05-02T12:04:00;4.70;;;2.13;;
46491;SDS011;32206;51.446;6.792;2023-05-02T12:06:27;5.30;;;1.70;;
46491;SDS011;32206;51.446;6.792;2023-05-02T12:08:53;5.18;;;1.60;;
46491;SDS011;32206;51.446;6.792;2023-05-02T12:11:32;4.28;;;1.30;;
46491;SDS011;32206;51.446;6.792;2023-05-02T12:13:59;5.72;;;1.92;;
46491;SDS011;32206;51.446;6.792;2023-05-02T12:19:48;3.03;;;1.20;;
46491;SDS011;32206;51.446;6.792;2023-05-02T12:22:14;8.77;;;1.70;;
46491;SDS011;32206;51.446;6.792;2023-05-02T12:24:41;3.85;;;1.30;;
46491;SDS011;32206;51.446;6.792;2023-05-02T12:27:10;4.40;;;1.70;;
46491;SDS011;32206;51.446;6.792;2023-05-02T12:29:40;5.13;;;1.50;;
46491;SDS011;32206;51.446;6.792;2023-05-02T12:35:19;6.57;;;1.70;;
46491;SDS011;32206;51.446;6.792;2023-05-02T12:37:46;8.18;;;1.95;;
46491;SDS011;32206;51.446;6.792;2023-05-02T12:40:15;6.88;;;1.65;;
46491;SDS011;32206;51.446;6.792;2023-05-02T12:42:41;5.30;;;1.85;;
46491;SDS011;32206;51.446;6.792;2023-05-02T12:45:16;4.50;;;1.60;;
46491;SDS011;32206;51.446;6.792;2023-05-02T12:51:20;5.50;;;1.75;;
46491;SDS011;32206;51.446;6.792;2023-05-02T12:53:47;4.57;;;1.60;;
46491;SDS011;32206;51.446;6.792;2023-05-02T12:56:13;3.42;;;1.83;;
46491;SDS011;32206;51.446;6.792;2023-05-02T13:01:10;6.68;;;1.90;;
46491;SDS011;32206;51.446;6.792;2023-05-02T13:06:58;4.78;;;1.92;;
46491;SDS011;32206;51.446;6.792;2023-05-02T13:09:24;9.20;;;2.03;;
46491;SDS011;32206;51.446;6.792;2023-05-02T13:11:49;7.50;;;2.17;;
46491;SDS011;32206;51.446;6.792;2023-05-02T13:14:17;4.38;;;2.08;;
46491;SDS011;32206;51.446;6.792;2023-05-02T13:16:42;6.97;;;2.10;;
46491;SDS011;32206;51.446;6.792;2023-05-02T13:19:08;7.93;;;2.20;;
46491;SDS011;32206;51.446;6.792;2023-05-02T13:21:34;9.18;;;2.78;;
46491;SDS011;32206;51.446;6.792;2023-05-02T13:23:59;3.65;;;1.83;;
46491;SDS011;32206;51.446;6.792;2023-05-02T13:26:27;6.68;;;1.92;;
46491;SDS011;32206;51.446;6.792;2023-05-02T13:28:53;5.18;;;1.70;;
46491;SDS011;32206;51.446;6.792;2023-05-02T13:31:20;2.78;;;1.50;;
46491;SDS011;32206;51.446;6.792;2023-05-02T13:33:45;2.83;;;1.88;;
46491;SDS011;32206;51.446;6.792;2023-05-02T13:36:11;6.38;;;1.70;;
46491;SDS011;32206;51.446;6.792;2023-05-02T13:38:37;3.45;;;1.60;;
46491;SDS011;32206;51.446;6.792;2023-05-02T13:41:03;9.27;;;2.53;;
46491;SDS011;32206;51.446;6.792;2023-05-02T13:43:29;6.43;;;2.30;;
46491;SDS011;32206;51.446;6.792;2023-05-02T13:45:54;5.32;;;2.10;;
46491;SDS011;32206;51.446;6.792;2023-05-02T13:51:51;5.40;;;1.58;;
46491;SDS011;32206;51.446;6.792;2023-05-02T13:54:17;8.70;;;1.90;;
46491;SDS011;32206;51.446;6.792;2023-05-02T14:00:05;4.10;;;1.60;;
46491;SDS011;32206;51.446;6.792;2023-05-02T14:02:33;5.32;;;1.85;;
46491;SDS011;32206;51.446;6.792;2023-05-02T14:05:00;6.13;;;2.47;;
46491;SDS011;32206;51.446;6.792;2023-05-02T14:07:26;7.63;;;2.17;;
46491;SDS011;32206;51.446;6.792;2023-05-02T14:13:13;8.38;;;2.47;;
46491;SDS011;32206;51.446;6.792;2023-05-02T14:15:39;8.18;;;2.13;;
46491;SDS011;32206;51.446;6.792;2023-05-02T14:18:04;8.60;;;2.92;;
46491;SDS011;32206;51.446;6.792;2023-05-02T14:20:30;10.65;;;2.33;;
46491;SDS011;32206;51.446;6.792;2023-05-02T14:22:56;6.18;;;1.95;;
46491;SDS011;32206;51.446;6.792;2023-05-02T14:32:06;10.35;;;2.78;;
46491;SDS011;32206;51.446;6.792;2023-05-02T14:34:32;9.95;;;3.40;;
46491;SDS011;32206;51.446;6.792;2023-05-02T14:36:57;8.20;;;2.08;;
46491;SDS011;32206;51.446;6.792;2023-05-02T14:39:23;3.40;;;1.92;;
46491;SDS011;32206;51.446;6.792;2023-05-02T14:45:14;4.18;;;1.90;;
46491;SDS011;32206;51.446;6.792;2023-05-02T14:47:39;6.63;;;2.22;;
46491;SDS011;32206;51.446;6.792;2023-05-02T14:50:05;3.70;;;1.77;;
46491;SDS011;32206;51.446;6.792;2023-05-02T14:52:31;5.90;;;1.92;;
46491;SDS011;32206;51.446;6.792;2023-05-02T14:55:00;5.97;;;2.10;;
46491;SDS011;32206;51.446;6.792;2023-05-02T14:57:26;6.00;;;2.10;;
46491;SDS011;32206;51.446;6.792;2023-05-02T14:59:52;6.32;;;2.75;;
46491;SDS011;32206;51.446;6.792;2023-05-02T15:02:18;12.10;;;2.45;;
46491;SDS011;32206;51.446;6.792;2023-05-02T15:04:44;28.45;;;16.45;;
46491;SDS011;32206;51.446;6.792;2023-05-02T15:07:09;15.05;;;6.15;;
46491;SDS011;32206;51.446;6.792;2023-05-02T15:09:35;9.95;;;2.78;;
46491;SDS011;32206;51.446;6.792;2023-05-02T15:12:01;5.18;;;2.30;;
46491;SDS011;32206;51.446;6.792;2023-05-02T15:14:27;5.95;;;2.75;;
46491;SDS011;32206;51.446;6.792;2023-05-02T15:16:53;7.43;;;2.20;;
46491;SDS011;32206;51.446;6.792;2023-05-02T15:32:48;6.10;;;2.42;;
46491;SDS011;32206;51.446;6.792;2023-05-02T15:35:14;28.27;;;17.50;;
46491;SDS011;32206;51.446;6.792;2023-05-02T15:37:39;13.23;;;4.72;;
46491;SDS011;32206;51.446;6.792;2023-05-02T15:40:05;9.80;;;2.70;;
46491;SDS011;32206;51.446;6.792;2023-05-02T15:42:33;6.07;;;2.25;;
46491;SDS011;32206;51.446;6.792;2023-05-02T15:45:00;4.80;;;2.60;;
46491;SDS011;32206;51.446;6.792;2023-05-02T15:47:26;11.20;;;2.30;;
46491;SDS011;32206;51.446;6.792;2023-05-02T15:53:17;8.27;;;2.45;;
46491;SDS011;32206;51.446;6.792;2023-05-02T15:55:46;5.38;;;2.00;;
46491;SDS011;32206;51.446;6.792;2023-05-02T15:58:12;8.40;;;2.47;;
46491;SDS011;32206;51.446;6.792;2023-05-02T16:00:38;7.97;;;2.53;;
46491;SDS011;32206;51.446;6.792;2023-05-02T16:03:03;5.82;;;1.83;;
46491;SDS011;32206;51.446;6.792;2023-05-02T16:08:52;6.45;;;2.53;;
46491;SDS011;32206;51.446;6.792;2023-05-02T16:11:17;4.80;;;2.30;;
46491;SDS011;32206;51.446;6.792;2023-05-02T16:13:43;5.20;;;2.10;;
46491;SDS011;32206;51.446;6.792;2023-05-02T16:16:09;8.48;;;2.10;;
46491;SDS011;32206;51.446;6.792;2023-05-02T16:18:34;7.35;;;2.40;;
46491;SDS011;32206;51.446;6.792;2023-05-02T16:27:45;4.70;;;2.13;;
46491;SDS011;32206;51.446;6.792;2023-05-02T16:30:10;5.90;;;2.45;;
46491;SDS011;32206;51.446;6.792;2023-05-02T16:32:36;7.40;;;2.60;;
46491;SDS011;32206;51.446;6.792;2023-05-02T16:44:50;4.90;;;1.98;;
46491;SDS011;32206;51.446;6.792;2023-05-02T16:47:16;4.93;;;2.00;;
46491;SDS011;32206;51.446;6.792;2023-05-02T16:49:43;12.55;;;3.05;;
46491;SDS011;32206;51.446;6.792;2023-05-02T16:52:09;7.68;;;2.20;;
46491;SDS011;32206;51.446;6.792;2023-05-02T16:54:36;7.00;;;2.20;;
46491;SDS011;32206;51.446;6.792;2023-05-02T16:57:01;5.63;;;2.03;;
46491;SDS011;32206;51.446;6.792;2023-05-02T16:59:27;7.53;;;2.42;;
46491;SDS011;32206;51.446;6.792;2023-05-02T17:01:53;7.47;;;2.50;;
46491;SDS011;32206;51.446;6.792;2023-05-02T17:07:42;8.32;;;2.20;;
46491;SDS011;32206;51.446;6.792;2023-05-02T17:10:08;15.65;;;2.70;;
46491;SDS011;32206;51.446;6.792;2023-05-02T17:12:34;9.25;;;2.65;;
46491;SDS011;32206;51.446;6.792;2023-05-02T17:15:00;12.82;;;2.40;;
46491;SDS011;32206;51.446;6.792;2023-05-02T17:17:25;5.60;;;2.65;;
46491;SDS011;32206;51.446;6.792;2023-05-02T17:26:04;9.40;;;2.80;;
46491;SDS011;32206;51.446;6.792;2023-05-02T17:28:38;6.80;;;2.88;;
46491;SDS011;32206;51.446;6.792;2023-05-02T17:31:09;9.82;;;2.35;;
46491;SDS011;32206;51.446;6.792;2023-05-02T17:33:35;3.70;;;2.20;;
46491;SDS011;32206;51.446;6.792;2023-05-02T17:36:01;10.07;;;2.58;;
46491;SDS011;32206;51.446;6.792;2023-05-02T17:41:50;13.80;;;2.70;;
46491;SDS011;32206;51.446;6.792;2023-05-02T17:44:16;4.63;;;2.70;;
46491;SDS011;32206;51.446;6.792;2023-05-02T17:46:41;5.35;;;1.95;;
46491;SDS011;32206;51.446;6.792;2023-05-02T17:49:07;7.70;;;2.33;;
46491;SDS011;32206;51.446;6.792;2023-05-02T17:54:54;6.85;;;2.15;;
46491;SDS011;32206;51.446;6.792;2023-05-02T17:57:20;3.40;;;2.28;;
46491;SDS011;32206;51.446;6.792;2023-05-02T17:59:46;7.00;;;2.72;;
46491;SDS011;32206;51.446;6.792;2023-05-02T18:02:12;9.32;;;3.17;;
46491;SDS011;32206;51.446;6.792;2023-05-02T18:04:38;6.95;;;2.17;;
46491;SDS011;32206;51.446;6.792;2023-05-02T18:10:26;10.15;;;2.80;;
46491;SDS011;32206;51.446;6.792;2023-05-02T18:12:52;4.75;;;2.17;;
46491;SDS011;32206;51.446;6.792;2023-05-02T18:15:18;8.07;;;3.13;;
46491;SDS011;32206;51.446;6.792;2023-05-02T18:17:44;6.95;;;1.83;;
46491;SDS011;32206;51.446;6.792;2023-05-02T18:26:54;9.57;;;2.95;;
46491;SDS011;32206;51.446;6.792;2023-05-02T18:29:19;9.68;;;2.10;;
46491;SDS011;32206;51.446;6.792;2023-05-02T18:31:45;7.30;;;2.10;;
46491;SDS011;32206;51.446;6.792;2023-05-02T18:34:16;6.13;;;2.60;;
46491;SDS011;32206;51.446;6.792;2023-05-02T18:40:07;7.80;;;2.95;;
46491;SDS011;32206;51.446;6.792;2023-05-02T18:42:33;13.45;;;2.38;;
46491;SDS011;32206;51.446;6.792;2023-05-02T18:44:59;4.00;;;1.90;;
46491;SDS011;32206;51.446;6.792;2023-05-02T18:47:25;8.05;;;2.72;;
46491;SDS011;32206;51.446;6.792;2023-05-02T18:49:50;3.30;;;2.08;;
46491;SDS011;32206;51.446;6.792;2023-05-02T18:55:41;6.53;;;2.10;;
46491;SDS011;32206;51.446;6.792;2023-05-02T18:58:07;5.65;;;2.55;;
46491;SDS011;32206;51.446;6.792;2023-05-02T19:00:33;8.70;;;2.72;;
46491;SDS011;32206;51.446;6.792;2023-05-02T19:02:58;6.63;;;2.38;;
46491;SDS011;32206;51.446;6.792;2023-05-02T19:05:24;7.03;;;2.28;;
46491;SDS011;32206;51.446;6.792;2023-05-02T19:07:51;4.78;;;2.30;;
46491;SDS011;32206;51.446;6.792;2023-05-02T19:10:17;4.80;;;2.13;;
46491;SDS011;32206;51.446;6.792;2023-05-02T19:12:42;4.80;;;2.10;;
46491;SDS011;32206;51.446;6.792;2023-05-02T19:15:09;3.47;;;1.92;;
46491;SDS011;32206;51.446;6.792;2023-05-02T19:17:35;4.35;;;2.45;;
46491;SDS011;32206;51.446;6.792;2023-05-02T19:20:01;5.82;;;2.15;;
46491;SDS011;32206;51.446;6.792;2023-05-02T19:25:49;6.75;;;2.83;;
46491;SDS011;32206;51.446;6.792;2023-05-02T19:28:15;5.95;;;2.40;;
46491;SDS011;32206;51.446;6.792;2023-05-02T19:30:43;6.05;;;1.70;;
46491;SDS011;32206;51.446;6.792;2023-05-02T19:33:09;7.53;;;2.15;;
46491;SDS011;32206;51.446;6.792;2023-05-02T19:35:35;4.35;;;2.65;;
46491;SDS011;32206;51.446;6.792;2023-05-02T19:38:01;6.43;;;2.72;;
46491;SDS011;32206;51.446;6.792;2023-05-02T19:40:27;4.55;;;1.63;;
46491;SDS011;32206;51.446;6.792;2023-05-02T19:42:52;8.50;;;2.67;;
46491;SDS011;32206;51.446;6.792;2023-05-02T19:45:18;5.85;;;1.98;;
46491;SDS011;32206;51.446;6.792;2023-05-02T19:47:43;7.38;;;2.63;;
46491;SDS011;32206;51.446;6.792;2023-05-02T19:50:10;8.18;;;2.50;;
46491;SDS011;32206;51.446;6.792;2023-05-02T19:55:58;9.68;;;2.25;;
46491;SDS011;32206;51.446;6.792;2023-05-02T19:58:25;4.18;;;2.00;;
46491;SDS011;32206;51.446;6.792;2023-05-02T20:00:51;3.63;;;1.73;;
46491;SDS011;32206;51.446;6.792;2023-05-02T20:03:17;6.50;;;1.85;;
46491;SDS011;32206;51.446;6.792;2023-05-02T20:05:44;8.40;;;2.17;;
46491;SDS011;32206;51.446;6.792;2023-05-02T20:15:13;7.72;;;1.85;;
46491;SDS011;32206;51.446;6.792;2023-05-02T20:21:02;5.30;;;2.08;;
46491;SDS011;32206;51.446;6.792;2023-05-02T20:26:50;7.13;;;2.22;;
46491;SDS011;32206;51.446;6.792;2023-05-02T20:29:16;6.15;;;2.10;;
46491;SDS011;32206;51.446;6.792;2023-05-02T20:31:41;4.50;;;1.75;;
46491;SDS011;32206;51.446;6.792;2023-05-02T20:34:08;6.68;;;2.13;;